Time;durP1;ratioP1;P1;durP2;ratioP2;P2;SDS_P1;SDS_P2;PMS_P1;PMS_P2;Temp;Humidity;BMP_temperature;BMP_pressure;BME280_temperature;BME280_humidity;BME280_pressure;Samples;Min_cycle;Max_cycle;Signal;HPM_P1;HPM_P2
2021/12/06 00:00:10;;;;;;;20.30;15.20;;;;;;;;;;4841434;29;20060;-74
2021/12/06 00:02:36;;;;;;;22.75;15.65;;;;;;;;;;4849755;29;20057;-74
2021/12/06 00:05:02;;;;;;;21.23;15.85;;;;;;;;;;4850121;29;20057;-74
2021/12/06 00:07:28;;;;;;;21.80;15.40;;;;;;;;;;4868835;29;20132;-74
2021/12/06 00:09:54;;;;;;;23.83;16.95;;;;;;;;;;4870994;29;20072;-74
2021/12/06 00:12:23;;;;;;;22.75;16.42;;;;;;;;;;4850520;29;20045;-74
2021/12/06 00:14:49;;;;;;;22.60;16.50;;;;;;;;;;4863220;29;20108;-74
2021/12/06 00:17:19;;;;;;;23.70;17.10;;;;;;;;;;4862221;29;20044;-74
2021/12/06 00:19:45;;;;;;;23.95;17.25;;;;;;;;;;4850945;29;20080;-74
2021/12/06 00:22:13;;;;;;;21.77;17.13;;;;;;;;;;4837852;29;20053;-74
2021/12/06 00:24:39;;;;;;;24.05;17.20;;;;;;;;;;4851470;29;20918;-73
2021/12/06 00:27:06;;;;;;;27.60;17.60;;;;;;;;;;4851256;29;20040;-74
2021/12/06 00:29:32;;;;;;;26.48;17.80;;;;;;;;;;4853907;29;20057;-74
2021/12/06 00:31:58;;;;;;;24.75;16.83;;;;;;;;;;4841641;29;20064;-75
2021/12/06 00:34:29;;;;;;;23.77;16.98;;;;;;;;;;4868245;29;20091;-74
2021/12/06 00:37:18;;;;;;;26.15;17.95;;;;;;;;;;4872397;29;20049;-74
2021/12/06 00:39:52;;;;;;;22.60;16.27;;;;;;;;;;4864770;29;20128;-74
2021/12/06 00:42:19;;;;;;;24.98;17.33;;;;;;;;;;4853908;29;20053;-74
2021/12/06 00:44:45;;;;;;;22.35;17.08;;;;;;;;;;4853083;29;20509;-74
2021/12/06 00:47:11;;;;;;;22.92;17.00;;;;;;;;;;4850726;29;20167;-74
2021/12/06 00:49:37;;;;;;;25.48;18.58;;;;;;;;;;4851994;29;20061;-74
2021/12/06 00:52:11;;;;;;;24.88;18.00;;;;;;;;;;4856125;29;20041;-75
2021/12/06 00:54:40;;;;;;;30.13;18.75;;;;;;;;;;4868180;29;20073;-75
2021/12/06 00:57:08;;;;;;;25.48;18.23;;;;;;;;;;4867663;29;20044;-75
2021/12/06 00:59:39;;;;;;;25.95;18.90;;;;;;;;;;4853294;29;20045;-74
2021/12/06 01:02:06;;;;;;;26.42;18.98;;;;;;;;;;4847310;29;20041;-75
2021/12/06 01:04:33;;;;;;;27.48;18.63;;;;;;;;;;4869749;29;20193;-75
2021/12/06 01:06:59;;;;;;;24.98;17.80;;;;;;;;;;4872031;29;20041;-74
2021/12/06 01:09:25;;;;;;;25.20;17.98;;;;;;;;;;4867860;29;20430;-75
2021/12/06 01:11:52;;;;;;;26.20;19.15;;;;;;;;;;4853775;29;20329;-74
2021/12/06 01:14:18;;;;;;;26.83;18.48;;;;;;;;;;4854200;29;20056;-75
2021/12/06 01:16:44;;;;;;;24.25;17.83;;;;;;;;;;4855518;29;20048;-74
2021/12/06 01:19:10;;;;;;;27.58;19.50;;;;;;;;;;4874140;29;20049;-75
2021/12/06 01:21:54;;;;;;;27.52;20.30;;;;;;;;;;4871478;29;20049;-74
2021/12/06 01:24:27;;;;;;;28.40;19.55;;;;;;;;;;4854412;29;20085;-74
2021/12/06 01:39:42;;;;;;;27.50;19.30;;;;;;;;;;4855228;29;20148;-75
2021/12/06 01:42:10;;;;;;;23.45;17.77;;;;;;;;;;4838075;29;20132;-75
2021/12/06 01:44:37;;;;;;;25.40;19.00;;;;;;;;;;4853789;29;20429;-74
2021/12/06 01:47:05;;;;;;;27.45;19.70;;;;;;;;;;4853919;29;20467;-75
2021/12/06 01:49:33;;;;;;;27.75;19.70;;;;;;;;;;4870895;29;20057;-75
2021/12/06 01:52:01;;;;;;;26.75;19.73;;;;;;;;;;4851055;29;20595;-75
2021/12/06 01:54:27;;;;;;;26.05;19.00;;;;;;;;;;4858641;29;20051;-75
2021/12/06 01:56:54;;;;;;;26.95;19.13;;;;;;;;;;4857587;29;20565;-75
2021/12/06 01:59:21;;;;;;;29.15;19.17;;;;;;;;;;4839061;29;20120;-75
2021/12/06 02:01:47;;;;;;;30.55;20.33;;;;;;;;;;4843112;29;20053;-74
2021/12/06 02:04:14;;;;;;;27.20;20.40;;;;;;;;;;4856056;29;20049;-75
2021/12/06 02:06:40;;;;;;;29.95;20.55;;;;;;;;;;4857975;29;20108;-74
2021/12/06 02:09:07;;;;;;;30.23;20.58;;;;;;;;;;4860214;29;20143;-75
2021/12/06 02:11:35;;;;;;;27.65;19.60;;;;;;;;;;4877809;29;20049;-75
2021/12/06 02:14:10;;;;;;;27.25;20.10;;;;;;;;;;4877972;29;20104;-75
2021/12/06 02:16:54;;;;;;;26.30;19.42;;;;;;;;;;4836014;29;20042;-74
2021/12/06 02:19:29;;;;;;;25.70;18.63;;;;;;;;;;4852693;29;20670;-74
2021/12/06 02:21:55;;;;;;;29.15;20.30;;;;;;;;;;4853940;29;20140;-74
2021/12/06 02:24:21;;;;;;;29.17;19.65;;;;;;;;;;4853710;29;20061;-73
2021/12/06 02:26:47;;;;;;;30.05;20.90;;;;;;;;;;4853029;29;20152;-73
2021/12/06 02:29:13;;;;;;;28.40;19.45;;;;;;;;;;4853348;29;20086;-74
2021/12/06 02:31:39;;;;;;;30.20;20.15;;;;;;;;;;4871033;29;20124;-74
2021/12/06 02:34:05;;;;;;;30.27;20.55;;;;;;;;;;4870466;29;20037;-74
2021/12/06 02:36:32;;;;;;;28.48;19.70;;;;;;;;;;4871948;29;20060;-74
2021/12/06 02:38:59;;;;;;;28.20;20.33;;;;;;;;;;4839476;29;20049;-73
2021/12/06 02:41:25;;;;;;;28.45;19.48;;;;;;;;;;4869244;29;20063;-74
2021/12/06 02:43:52;;;;;;;28.58;20.27;;;;;;;;;;4856059;29;20489;-73
2021/12/06 02:46:18;;;;;;;29.50;20.15;;;;;;;;;;4838609;29;20048;-73
2021/12/06 02:48:53;;;;;;;27.00;19.05;;;;;;;;;;4853995;29;20056;-74
2021/12/06 02:51:19;;;;;;;28.63;19.83;;;;;;;;;;4873506;29;20232;-74
2021/12/06 02:53:46;;;;;;;27.92;19.65;;;;;;;;;;4869165;29;20135;-73
2021/12/06 02:56:34;;;;;;;33.38;21.10;;;;;;;;;;4869714;29;20053;-74
2021/12/06 02:59:04;;;;;;;27.35;20.17;;;;;;;;;;4853992;29;20049;-73
2021/12/06 03:01:35;;;;;;;28.08;20.20;;;;;;;;;;4862974;29;20052;-73
2021/12/06 03:04:02;;;;;;;30.98;20.52;;;;;;;;;;4835230;29;20461;-74
2021/12/06 03:06:29;;;;;;;31.35;21.92;;;;;;;;;;4841218;29;20186;-74
2021/12/06 03:09:06;;;;;;;28.77;20.33;;;;;;;;;;4842267;29;22238;-74
2021/12/06 03:11:53;;;;;;;31.80;21.35;;;;;;;;;;4828436;29;20066;-74
2021/12/06 03:14:39;;;;;;;31.50;20.98;;;;;;;;;;4843870;29;20413;-73
2021/12/06 03:17:06;;;;;;;29.30;20.38;;;;;;;;;;4844196;29;20104;-74
2021/12/06 03:19:33;;;;;;;30.67;21.13;;;;;;;;;;4839676;29;22308;-74
2021/12/06 03:21:59;;;;;;;29.83;20.27;;;;;;;;;;4822690;29;20061;-73
2021/12/06 03:24:25;;;;;;;34.13;22.08;;;;;;;;;;4824189;29;20092;-74
2021/12/06 03:26:51;;;;;;;31.60;21.60;;;;;;;;;;4823572;29;20750;-73
2021/12/06 03:29:23;;;;;;;30.90;21.58;;;;;;;;;;4821581;29;20521;-74
2021/12/06 03:31:49;;;;;;;29.95;20.90;;;;;;;;;;4825082;29;20064;-74
2021/12/06 03:34:16;;;;;;;32.28;21.55;;;;;;;;;;4842478;29;20430;-74
2021/12/06 03:36:43;;;;;;;31.75;22.02;;;;;;;;;;4841379;29;20095;-74
2021/12/06 03:39:12;;;;;;;30.40;21.80;;;;;;;;;;4826315;29;20470;-74
2021/12/06 03:41:38;;;;;;;31.90;21.45;;;;;;;;;;4822863;29;20117;-74
2021/12/06 03:44:04;;;;;;;33.63;22.17;;;;;;;;;;4841821;29;20064;-73
2021/12/06 03:46:32;;;;;;;33.40;22.63;;;;;;;;;;4825116;29;20057;-74
2021/12/06 03:48:58;;;;;;;34.88;22.60;;;;;;;;;;4823842;29;20105;-74
2021/12/06 03:51:24;;;;;;;34.33;22.92;;;;;;;;;;4822553;29;20144;-73
2021/12/06 03:53:50;;;;;;;32.17;21.70;;;;;;;;;;4824448;29;20053;-73
2021/12/06 03:56:16;;;;;;;37.33;24.25;;;;;;;;;;4822041;29;20068;-74
2021/12/06 03:58:45;;;;;;;32.95;21.92;;;;;;;;;;4820891;29;20057;-74
2021/12/06 04:01:11;;;;;;;36.45;22.58;;;;;;;;;;4838819;29;22271;-74
2021/12/06 04:03:37;;;;;;;33.20;22.10;;;;;;;;;;4823221;29;20064;-73
2021/12/06 04:06:04;;;;;;;35.33;22.27;;;;;;;;;;4837654;29;21419;-74
2021/12/06 04:08:30;;;;;;;32.47;21.42;;;;;;;;;;4841225;29;20064;-74
2021/12/06 04:10:56;;;;;;;32.67;22.55;;;;;;;;;;4823612;29;20870;-74
2021/12/06 04:13:22;;;;;;;33.90;23.15;;;;;;;;;;4820018;29;20052;-74
2021/12/06 04:15:49;;;;;;;36.78;23.10;;;;;;;;;;4823288;29;20274;-74
2021/12/06 04:18:15;;;;;;;33.67;22.33;;;;;;;;;;4820669;29;20876;-74
2021/12/06 04:20:42;;;;;;;33.90;23.13;;;;;;;;;;4840871;29;20052;-74
2021/12/06 04:23:09;;;;;;;34.08;22.08;;;;;;;;;;4826168;29;20059;-74
2021/12/06 04:25:35;;;;;;;35.60;23.25;;;;;;;;;;4831992;29;20060;-73
2021/12/06 04:28:06;;;;;;;32.38;21.98;;;;;;;;;;4827224;29;20078;-74
2021/12/06 04:30:32;;;;;;;34.88;22.45;;;;;;;;;;4829445;29;20068;-74
2021/12/06 04:32:59;;;;;;;34.00;21.75;;;;;;;;;;4839094;29;21006;-74
2021/12/06 04:35:26;;;;;;;33.05;21.92;;;;;;;;;;4845772;29;20113;-74
2021/12/06 04:37:53;;;;;;;37.88;23.52;;;;;;;;;;4842814;29;20056;-74
2021/12/06 04:40:19;;;;;;;34.28;22.63;;;;;;;;;;4845065;29;20057;-74
2021/12/06 04:42:45;;;;;;;35.13;21.73;;;;;;;;;;4843028;29;20805;-74
2021/12/06 04:45:12;;;;;;;36.97;22.95;;;;;;;;;;4812548;29;20077;-74
2021/12/06 04:47:38;;;;;;;34.97;23.63;;;;;;;;;;4828470;29;20056;-73
2021/12/06 04:50:05;;;;;;;35.20;22.77;;;;;;;;;;4806918;29;20053;-74
2021/12/06 04:52:31;;;;;;;37.10;22.20;;;;;;;;;;4828968;29;20060;-73
2021/12/06 04:54:59;;;;;;;37.95;24.27;;;;;;;;;;4832456;29;20390;-74
2021/12/06 04:57:35;;;;;;;37.22;22.98;;;;;;;;;;4845008;29;20269;-74
2021/12/06 05:00:09;;;;;;;38.90;23.73;;;;;;;;;;4847533;29;20068;-74
2021/12/06 05:02:36;;;;;;;40.15;23.90;;;;;;;;;;4828202;29;20570;-74
2021/12/06 05:05:09;;;;;;;40.25;23.92;;;;;;;;;;4830972;29;22271;-74
2021/12/06 05:07:37;;;;;;;41.43;25.37;;;;;;;;;;4845428;29;20049;-74
2021/12/06 05:10:05;;;;;;;38.33;23.63;;;;;;;;;;4829173;29;20332;-74
2021/12/06 05:12:31;;;;;;;41.80;25.15;;;;;;;;;;4845580;29;20060;-74
2021/12/06 05:14:58;;;;;;;40.05;23.73;;;;;;;;;;4828622;29;20061;-74
2021/12/06 05:17:24;;;;;;;43.40;25.73;;;;;;;;;;4848697;29;22282;-74
2021/12/06 05:19:50;;;;;;;46.33;26.13;;;;;;;;;;4842657;29;20049;-74
2021/12/06 05:22:17;;;;;;;46.28;25.95;;;;;;;;;;4844254;29;20056;-73
2021/12/06 05:24:43;;;;;;;46.80;27.20;;;;;;;;;;4836623;29;20509;-73
2021/12/06 05:27:12;;;;;;;47.20;25.88;;;;;;;;;;4787754;29;20155;-73
2021/12/06 05:29:38;;;;;;;46.38;27.08;;;;;;;;;;4806590;29;20187;-73
2021/12/06 05:32:05;;;;;;;46.47;27.42;;;;;;;;;;4846384;29;20057;-74
2021/12/06 05:34:37;;;;;;;46.03;26.73;;;;;;;;;;4847914;29;20049;-75
2021/12/06 05:37:04;;;;;;;47.80;27.90;;;;;;;;;;4847508;29;20535;-74
2021/12/06 05:39:33;;;;;;;44.95;26.95;;;;;;;;;;4829015;29;20671;-74
2021/12/06 05:42:04;;;;;;;45.58;26.25;;;;;;;;;;4844060;29;20180;-74
2021/12/06 05:44:31;;;;;;;45.13;26.55;;;;;;;;;;4826123;29;20060;-74
2021/12/06 05:47:04;;;;;;;49.40;26.98;;;;;;;;;;4810990;29;20056;-74
2021/12/06 05:49:30;;;;;;;45.80;26.20;;;;;;;;;;4822945;29;20502;-74
2021/12/06 05:51:56;;;;;;;46.17;26.63;;;;;;;;;;4840625;29;20061;-75
2021/12/06 05:54:22;;;;;;;45.22;26.10;;;;;;;;;;4840076;29;20060;-74
2021/12/06 05:56:48;;;;;;;46.13;26.25;;;;;;;;;;4843375;29;20179;-75
2021/12/06 05:59:15;;;;;;;44.20;25.80;;;;;;;;;;4821680;29;20053;-74
2021/12/06 06:01:41;;;;;;;44.70;25.92;;;;;;;;;;4840482;29;20067;-74
2021/12/06 06:04:07;;;;;;;44.90;26.50;;;;;;;;;;4823996;29;20151;-74
2021/12/06 06:06:34;;;;;;;46.72;26.08;;;;;;;;;;4843907;29;22021;-74
2021/12/06 06:09:09;;;;;;;46.10;25.33;;;;;;;;;;4840345;29;20056;-73
2021/12/06 06:11:36;;;;;;;45.97;26.00;;;;;;;;;;4826682;29;20053;-74
2021/12/06 06:14:03;;;;;;;44.22;24.67;;;;;;;;;;4824921;29;20061;-74
2021/12/06 06:16:32;;;;;;;38.47;22.33;;;;;;;;;;4824823;29;20140;-74
2021/12/06 06:18:59;;;;;;;36.65;21.85;;;;;;;;;;4848793;29;20064;-72
2021/12/06 06:21:25;;;;;;;38.95;20.85;;;;;;;;;;4842596;29;20068;-73
2021/12/06 06:23:51;;;;;;;38.28;21.73;;;;;;;;;;4824434;29;20053;-74
2021/12/06 06:26:17;;;;;;;38.63;22.58;;;;;;;;;;4822783;29;20175;-74
2021/12/06 06:28:43;;;;;;;37.60;20.63;;;;;;;;;;4840453;29;20539;-74
2021/12/06 06:31:09;;;;;;;36.92;20.70;;;;;;;;;;4806973;29;20053;-74
2021/12/06 06:33:36;;;;;;;37.20;20.25;;;;;;;;;;4840390;29;20060;-74
2021/12/06 06:36:02;;;;;;;37.90;22.33;;;;;;;;;;4839087;29;20103;-74
2021/12/06 06:38:28;;;;;;;36.33;20.63;;;;;;;;;;4826809;29;20483;-75
2021/12/06 06:40:54;;;;;;;45.78;23.35;;;;;;;;;;4841055;29;20605;-75
2021/12/06 06:43:20;;;;;;;40.08;22.38;;;;;;;;;;4825639;29;20593;-75
2021/12/06 06:45:46;;;;;;;39.60;23.45;;;;;;;;;;4824717;29;20067;-75
2021/12/06 06:48:18;;;;;;;42.63;23.70;;;;;;;;;;4839488;29;20056;-75
2021/12/06 06:50:44;;;;;;;47.97;25.10;;;;;;;;;;4826085;29;20071;-74
2021/12/06 06:53:10;;;;;;;40.60;23.65;;;;;;;;;;4827137;29;20053;-73
2021/12/06 06:55:36;;;;;;;45.33;24.60;;;;;;;;;;4845097;29;20053;-74
2021/12/06 06:58:03;;;;;;;45.08;25.35;;;;;;;;;;4814843;29;20056;-73
2021/12/06 07:00:30;;;;;;;47.05;25.15;;;;;;;;;;4844380;29;20171;-74
2021/12/06 07:02:56;;;;;;;43.95;25.42;;;;;;;;;;4845863;29;20175;-73
2021/12/06 07:05:23;;;;;;;43.60;24.20;;;;;;;;;;4844335;29;20113;-74
2021/12/06 07:07:49;;;;;;;47.20;25.50;;;;;;;;;;4812969;29;20057;-74
2021/12/06 07:10:15;;;;;;;44.42;24.30;;;;;;;;;;5200699;23;20160;-73
2021/12/06 07:12:50;;;;;;;45.40;24.92;;;;;;;;;;4870213;29;20148;-73
2021/12/06 07:15:18;;;;;;;41.50;23.25;;;;;;;;;;4846958;29;21645;-73
2021/12/06 07:17:46;;;;;;;39.75;23.33;;;;;;;;;;4846598;29;20037;-74
2021/12/06 07:20:12;;;;;;;38.85;22.45;;;;;;;;;;4869484;29;20395;-74
2021/12/06 07:22:39;;;;;;;38.60;20.70;;;;;;;;;;4851344;29;20053;-74
2021/12/06 07:25:05;;;;;;;41.25;22.40;;;;;;;;;;4882907;23;20088;-73
2021/12/06 07:27:32;;;;;;;41.10;23.13;;;;;;;;;;4843561;29;20920;-73
2021/12/06 07:29:59;;;;;;;41.10;22.13;;;;;;;;;;4865928;29;20048;-74
2021/12/06 07:32:29;;;;;;;39.10;22.13;;;;;;;;;;4862096;29;20049;-74
2021/12/06 07:34:55;;;;;;;42.58;21.50;;;;;;;;;;4860942;29;21911;-74
2021/12/06 07:37:53;;;;;;;41.63;22.00;;;;;;;;;;4938633;23;20129;-74
2021/12/06 07:40:24;;;;;;;40.03;22.27;;;;;;;;;;4838124;29;21024;-74
2021/12/06 07:42:53;;;;;;;44.58;23.23;;;;;;;;;;4821595;29;20049;-74
2021/12/06 07:45:19;;;;;;;39.28;23.15;;;;;;;;;;4832876;29;20116;-75
2021/12/06 07:47:46;;;;;;;43.30;23.83;;;;;;;;;;4841616;29;20160;-74
2021/12/06 07:52:44;;;;;;;43.10;22.83;;;;;;;;;;4855792;29;20056;-74
2021/12/06 07:55:13;;;;;;;46.22;23.83;;;;;;;;;;4837931;29;20056;-74
2021/12/06 07:57:39;;;;;;;42.92;23.80;;;;;;;;;;4837900;29;20140;-75
2021/12/06 08:00:08;;;;;;;47.03;24.35;;;;;;;;;;4850595;29;20754;-74
2021/12/06 08:02:37;;;;;;;43.13;23.95;;;;;;;;;;4836158;29;22144;-74
2021/12/06 08:05:29;;;;;;;47.00;24.45;;;;;;;;;;4823536;29;20057;-74
2021/12/06 08:08:08;;;;;;;47.53;24.08;;;;;;;;;;4852180;23;20060;-74
2021/12/06 08:10:36;;;;;;;45.38;25.08;;;;;;;;;;4844786;29;21253;-74
2021/12/06 08:13:02;;;;;;;48.38;25.52;;;;;;;;;;4845003;29;20140;-74
2021/12/06 08:15:28;;;;;;;52.35;25.83;;;;;;;;;;4843298;29;20056;-74
2021/12/06 08:17:55;;;;;;;52.28;26.05;;;;;;;;;;4826885;29;20121;-74
2021/12/06 08:20:23;;;;;;;50.03;25.83;;;;;;;;;;4836484;29;20063;-74
2021/12/06 08:22:49;;;;;;;55.47;27.35;;;;;;;;;;4845322;29;20065;-74
2021/12/06 08:25:16;;;;;;;52.67;26.10;;;;;;;;;;4823961;29;20370;-74
2021/12/06 08:27:42;;;;;;;49.13;25.10;;;;;;;;;;4844155;29;20060;-75
2021/12/06 08:30:10;;;;;;;48.58;24.75;;;;;;;;;;4843716;29;20049;-74
2021/12/06 08:32:36;;;;;;;49.35;25.70;;;;;;;;;;4827372;29;20053;-73
2021/12/06 08:35:04;;;;;;;50.47;25.42;;;;;;;;;;4825194;29;20067;-74
2021/12/06 08:37:30;;;;;;;49.10;23.65;;;;;;;;;;4826553;29;20727;-74
2021/12/06 08:39:56;;;;;;;48.33;25.75;;;;;;;;;;4824962;29;20052;-74
2021/12/06 08:42:22;;;;;;;53.00;26.05;;;;;;;;;;4847077;29;20056;-75
2021/12/06 08:44:48;;;;;;;44.50;24.42;;;;;;;;;;4825342;29;20061;-75
2021/12/06 08:47:17;;;;;;;51.63;25.20;;;;;;;;;;4842537;29;20053;-74
2021/12/06 08:49:44;;;;;;;51.45;25.40;;;;;;;;;;4846036;29;20045;-74
2021/12/06 08:52:11;;;;;;;52.65;25.63;;;;;;;;;;4849094;29;20530;-75
2021/12/06 08:54:37;;;;;;;51.90;26.67;;;;;;;;;;4810952;29;20064;-73
2021/12/06 08:57:03;;;;;;;50.28;25.75;;;;;;;;;;4825196;29;20506;-74
2021/12/06 08:59:29;;;;;;;52.97;26.00;;;;;;;;;;4825675;29;20112;-74
2021/12/06 09:01:59;;;;;;;56.15;27.38;;;;;;;;;;4828396;29;20063;-74
2021/12/06 09:04:26;;;;;;;51.92;26.48;;;;;;;;;;4815444;29;20057;-74
2021/12/06 09:06:53;;;;;;;55.05;26.50;;;;;;;;;;4844298;29;20475;-73
2021/12/06 09:09:21;;;;;;;53.80;25.45;;;;;;;;;;4825738;29;20069;-74
2021/12/06 09:11:47;;;;;;;56.15;27.73;;;;;;;;;;4827376;29;20063;-73
2021/12/06 09:14:14;;;;;;;51.30;25.00;;;;;;;;;;4825298;29;20422;-74
2021/12/06 09:16:41;;;;;;;53.45;27.02;;;;;;;;;;4843430;29;20160;-74
2021/12/06 09:19:07;;;;;;;49.47;25.02;;;;;;;;;;4843997;29;20865;-73
2021/12/06 09:21:37;;;;;;;50.80;25.40;;;;;;;;;;4811822;29;20080;-74
2021/12/06 09:24:03;;;;;;;49.83;26.50;;;;;;;;;;4845008;29;20782;-74
2021/12/06 09:26:30;;;;;;;56.42;25.52;;;;;;;;;;4832920;29;20144;-74
2021/12/06 09:28:56;;;;;;;52.15;26.58;;;;;;;;;;4811055;29;20122;-73
2021/12/06 09:31:23;;;;;;;54.45;25.52;;;;;;;;;;4843742;29;20128;-74
2021/12/06 09:33:49;;;;;;;49.47;24.67;;;;;;;;;;4828617;29;20072;-74
2021/12/06 09:36:15;;;;;;;55.35;27.02;;;;;;;;;;4847495;29;20144;-74
2021/12/06 09:38:42;;;;;;;51.80;25.00;;;;;;;;;;4845322;29;20088;-74
2021/12/06 09:41:11;;;;;;;56.83;27.17;;;;;;;;;;4809201;29;20147;-74
2021/12/06 09:43:39;;;;;;;51.05;27.17;;;;;;;;;;4846239;29;21969;-73
2021/12/06 09:46:06;;;;;;;52.67;25.42;;;;;;;;;;4830037;29;20758;-73
2021/12/06 09:48:32;;;;;;;58.08;28.65;;;;;;;;;;4844075;29;20139;-73
2021/12/06 09:51:00;;;;;;;54.15;26.45;;;;;;;;;;4845719;29;20071;-75
2021/12/06 09:53:28;;;;;;;56.58;28.33;;;;;;;;;;4848435;29;20794;-73
2021/12/06 09:55:56;;;;;;;58.05;26.92;;;;;;;;;;4822422;29;20090;-73
2021/12/06 09:58:22;;;;;;;49.58;26.17;;;;;;;;;;4846313;29;20065;-74
2021/12/06 10:00:57;;;;;;;55.50;26.45;;;;;;;;;;4828166;29;21662;-74
2021/12/06 10:03:26;;;;;;;54.92;26.42;;;;;;;;;;4828794;29;20049;-74
2021/12/06 10:05:53;;;;;;;48.42;24.92;;;;;;;;;;4846579;29;20423;-74
2021/12/06 10:08:19;;;;;;;47.63;25.73;;;;;;;;;;4830765;29;20356;-74
2021/12/06 10:10:46;;;;;;;50.67;25.60;;;;;;;;;;4827614;29;20142;-74
2021/12/06 10:13:16;;;;;;;52.13;26.02;;;;;;;;;;4839553;29;20128;-73
2021/12/06 10:15:43;;;;;;;52.67;25.60;;;;;;;;;;4814859;29;20061;-74
2021/12/06 10:18:10;;;;;;;51.00;25.25;;;;;;;;;;4828323;29;20049;-74
2021/12/06 10:20:36;;;;;;;52.67;23.98;;;;;;;;;;4814340;29;20068;-74
2021/12/06 10:23:02;;;;;;;54.10;25.80;;;;;;;;;;4830902;29;20045;-73
2021/12/06 10:25:37;;;;;;;53.05;26.30;;;;;;;;;;4855808;29;20056;-74
2021/12/06 10:28:05;;;;;;;49.60;25.40;;;;;;;;;;4863277;29;20053;-74
2021/12/06 10:30:34;;;;;;;51.13;26.55;;;;;;;;;;4876820;29;20044;-73
2021/12/06 10:33:21;;;;;;;50.33;26.27;;;;;;;;;;4844772;29;20061;-74
2021/12/06 10:35:48;;;;;;;54.13;26.52;;;;;;;;;;4855628;29;20053;-74
2021/12/06 10:38:26;;;;;;;52.47;25.50;;;;;;;;;;4874725;29;20116;-75
2021/12/06 10:40:56;;;;;;;58.03;26.88;;;;;;;;;;4873524;29;20152;-74
2021/12/06 10:43:22;;;;;;;56.00;28.27;;;;;;;;;;4859896;29;20045;-74
2021/12/06 10:45:49;;;;;;;59.58;28.95;;;;;;;;;;4869980;29;20060;-74
2021/12/06 10:48:17;;;;;;;53.53;27.08;;;;;;;;;;4858460;29;20049;-74
2021/12/06 10:50:49;;;;;;;58.17;28.58;;;;;;;;;;4861565;29;20041;-74
2021/12/06 10:53:17;;;;;;;54.45;26.00;;;;;;;;;;4859111;29;20056;-74
2021/12/06 10:55:44;;;;;;;55.72;28.20;;;;;;;;;;4878128;29;20057;-74
2021/12/06 10:58:17;;;;;;;50.25;25.92;;;;;;;;;;4878454;29;20045;-73
2021/12/06 11:00:43;;;;;;;;;;;;;;;;;;4870514;29;20044;-74
2021/12/06 11:03:21;;;;;;;53.70;26.33;;;;;;;;;;4859794;29;20293;-74
2021/12/06 11:05:50;;;;;;;51.45;27.33;;;;;;;;;;4876166;29;20160;-74
2021/12/06 11:08:17;;;;;;;49.35;25.25;;;;;;;;;;4870729;29;20060;-74
2021/12/06 11:10:48;;;;;;;55.42;26.75;;;;;;;;;;4855693;29;20048;-74
2021/12/06 11:13:16;;;;;;;55.88;25.67;;;;;;;;;;4859163;29;20651;-74
2021/12/06 11:15:52;;;;;;;54.42;27.63;;;;;;;;;;4843434;29;20061;-74
2021/12/06 11:18:31;;;;;;;50.33;25.63;;;;;;;;;;4876710;29;20450;-73
2021/12/06 11:20:58;;;;;;;53.47;26.90;;;;;;;;;;4852276;29;20044;-74
2021/12/06 11:23:24;;;;;;;51.42;27.38;;;;;;;;;;4859810;29;20049;-74
2021/12/06 11:25:58;;;;;;;52.83;27.52;;;;;;;;;;4861129;29;20422;-74
2021/12/06 11:28:25;;;;;;;56.63;27.70;;;;;;;;;;4872048;29;20041;-74
2021/12/06 11:31:05;;;;;;;46.53;25.70;;;;;;;;;;4859174;29;20083;-73
2021/12/06 11:33:37;;;;;;;51.15;25.70;;;;;;;;;;4874199;29;20044;-74
2021/12/06 11:36:17;;;;;;;43.65;23.77;;;;;;;;;;4859606;29;20108;-73
2021/12/06 11:38:47;;;;;;;44.25;23.20;;;;;;;;;;4873425;29;20049;-75
2021/12/06 11:41:13;;;;;;;43.45;23.73;;;;;;;;;;4872606;29;20048;-73
2021/12/06 11:43:39;;;;;;;41.70;23.20;;;;;;;;;;4857030;29;20069;-73
2021/12/06 11:46:08;;;;;;;42.28;22.52;;;;;;;;;;4874143;29;20200;-74
2021/12/06 11:48:37;;;;;;;43.47;23.42;;;;;;;;;;4874751;29;20053;-74
2021/12/06 11:51:07;;;;;;;44.70;23.35;;;;;;;;;;4873509;29;20048;-74
2021/12/06 11:53:46;;;;;;;45.65;24.98;;;;;;;;;;4875239;29;20094;-73
2021/12/06 11:56:32;;;;;;;41.88;23.00;;;;;;;;;;4858444;29;20048;-74
2021/12/06 11:58:59;;;;;;;47.00;23.52;;;;;;;;;;4860873;29;20104;-76
2021/12/06 12:01:30;;;;;;;41.38;23.42;;;;;;;;;;4876708;29;20041;-75
2021/12/06 12:03:58;;;;;;;45.30;25.88;;;;;;;;;;4870509;29;20036;-75
2021/12/06 12:06:30;;;;;;;44.22;24.80;;;;;;;;;;4862519;29;20091;-75
2021/12/06 12:09:13;;;;;;;44.83;24.83;;;;;;;;;;4872228;29;20053;-75
2021/12/06 12:12:07;;;;;;;44.22;26.45;;;;;;;;;;4860125;29;20068;-74
2021/12/06 12:14:36;;;;;;;44.63;24.02;;;;;;;;;;4877091;29;20045;-74
2021/12/06 12:17:09;;;;;;;44.45;24.75;;;;;;;;;;4873795;29;20101;-75
2021/12/06 12:19:35;;;;;;;49.42;25.95;;;;;;;;;;4877279;29;20044;-74
2021/12/06 12:22:01;;;;;;;47.38;26.58;;;;;;;;;;4877274;29;20081;-74
2021/12/06 12:24:27;;;;;;;48.60;27.35;;;;;;;;;;4853920;29;20037;-74
2021/12/06 12:27:03;;;;;;;47.03;25.48;;;;;;;;;;4860778;29;20458;-75
2021/12/06 12:29:29;;;;;;;48.72;26.52;;;;;;;;;;4877560;29;20131;-75
2021/12/06 12:32:06;;;;;;;50.67;26.98;;;;;;;;;;4874642;29;20100;-74
2021/12/06 12:34:33;;;;;;;51.22;27.23;;;;;;;;;;4844411;29;20047;-74
2021/12/06 12:37:01;;;;;;;54.53;27.75;;;;;;;;;;4876985;29;20462;-75
2021/12/06 12:39:27;;;;;;;51.55;27.88;;;;;;;;;;4858471;29;20131;-74
2021/12/06 12:41:58;;;;;;;58.75;30.00;;;;;;;;;;4860883;29;20132;-74
2021/12/06 12:44:24;;;;;;;52.28;29.33;;;;;;;;;;4875521;29;20053;-74
2021/12/06 12:46:53;;;;;;;59.13;29.70;;;;;;;;;;4859525;29;20049;-75
2021/12/06 12:49:30;;;;;;;56.38;30.55;;;;;;;;;;4876024;29;20587;-75
2021/12/06 12:51:57;;;;;;;60.03;29.83;;;;;;;;;;4876667;29;20044;-74
2021/12/06 12:54:28;;;;;;;59.10;30.13;;;;;;;;;;4876438;29;20041;-74
2021/12/06 12:57:03;;;;;;;52.85;28.45;;;;;;;;;;4859404;29;20533;-75
2021/12/06 12:59:35;;;;;;;59.85;30.90;;;;;;;;;;4876002;29;20060;-75
2021/12/06 13:02:25;;;;;;;63.85;31.50;;;;;;;;;;4843149;29;20064;-75
2021/12/06 13:05:00;;;;;;;62.10;30.45;;;;;;;;;;4877361;29;20395;-75
2021/12/06 13:07:27;;;;;;;61.50;31.60;;;;;;;;;;4858613;29;20064;-75
2021/12/06 13:09:55;;;;;;;63.30;31.08;;;;;;;;;;4878636;29;20052;-74
2021/12/06 13:12:21;;;;;;;60.38;30.23;;;;;;;;;;4848273;29;20144;-75
2021/12/06 13:14:56;;;;;;;61.03;32.88;;;;;;;;;;4862372;29;20041;-74
2021/12/06 13:17:30;;;;;;;62.65;32.10;;;;;;;;;;4873448;29;20106;-74
2021/12/06 13:20:10;;;;;;;70.18;33.88;;;;;;;;;;4856057;29;20049;-75
2021/12/06 13:22:46;;;;;;;67.35;33.72;;;;;;;;;;4841818;29;20041;-74
2021/12/06 13:25:13;;;;;;;65.50;34.92;;;;;;;;;;4863468;29;20037;-74
2021/12/06 13:27:40;;;;;;;59.03;31.98;;;;;;;;;;4861697;29;20060;-74
2021/12/06 13:30:10;;;;;;;68.38;36.35;;;;;;;;;;4857161;29;20378;-74
2021/12/06 13:32:44;;;;;;;69.75;36.28;;;;;;;;;;4879839;29;20064;-75
2021/12/06 13:35:19;;;;;;;65.68;35.38;;;;;;;;;;4840955;29;20418;-74
2021/12/06 13:37:58;;;;;;;64.00;34.40;;;;;;;;;;4874457;29;20045;-74
2021/12/06 13:40:24;;;;;;;62.47;35.53;;;;;;;;;;4861324;29;20056;-75
2021/12/06 13:42:50;;;;;;;54.33;31.77;;;;;;;;;;4877919;29;20045;-75
2021/12/06 13:45:17;;;;;;;58.40;32.28;;;;;;;;;;4874152;29;20133;-75
2021/12/06 13:47:47;;;;;;;49.88;29.35;;;;;;;;;;4858670;29;20041;-75
2021/12/06 13:50:15;;;;;;;55.40;31.55;;;;;;;;;;4862568;29;20461;-75
2021/12/06 13:52:46;;;;;;;57.92;32.25;;;;;;;;;;4878577;29;20037;-74
2021/12/06 13:55:19;;;;;;;56.00;33.92;;;;;;;;;;4878167;29;20049;-74
2021/12/06 13:57:45;;;;;;;;;;;;;;;;;;4873197;29;20042;-74
2021/12/06 14:00:14;;;;;;;56.45;32.60;;;;;;;;;;4862947;29;19984;-74
2021/12/06 14:02:42;;;;;;;60.72;34.30;;;;;;;;;;4861139;29;20052;-74
2021/12/06 14:05:09;;;;;;;54.75;33.63;;;;;;;;;;4861286;29;20048;-74
2021/12/06 14:07:36;;;;;;;57.95;33.42;;;;;;;;;;4879030;29;20383;-75
2021/12/06 14:10:03;;;;;;;60.63;34.35;;;;;;;;;;4861870;29;20041;-75
2021/12/06 14:12:30;;;;;;;59.50;34.85;;;;;;;;;;4878848;29;20072;-75
2021/12/06 14:15:03;;;;;;;57.28;34.28;;;;;;;;;;4862530;29;20080;-75
2021/12/06 14:17:29;;;;;;;53.33;31.85;;;;;;;;;;4861602;29;20064;-75
2021/12/06 14:19:55;;;;;;;54.20;31.73;;;;;;;;;;4878724;29;20041;-74
2021/12/06 14:22:23;;;;;;;48.65;30.08;;;;;;;;;;4877311;29;20068;-76
2021/12/06 14:24:49;;;;;;;44.28;26.80;;;;;;;;;;4846166;29;20056;-74
2021/12/06 14:27:17;;;;;;;41.15;25.98;;;;;;;;;;4839583;29;20050;-75
2021/12/06 14:29:49;;;;;;;39.58;25.48;;;;;;;;;;4862758;29;20078;-74
2021/12/06 14:32:15;;;;;;;36.22;25.00;;;;;;;;;;4861094;29;20521;-74
2021/12/06 14:34:42;;;;;;;39.85;24.80;;;;;;;;;;4861867;29;20048;-74
2021/12/06 14:37:10;;;;;;;39.60;24.95;;;;;;;;;;4861522;29;20053;-74
2021/12/06 14:39:37;;;;;;;37.53;24.00;;;;;;;;;;4878961;29;20131;-74
2021/12/06 14:42:05;;;;;;;36.50;24.52;;;;;;;;;;4874786;29;20046;-74